EmailTwitter


Surface observations / United Kingdom / EGLL (03772)

Regions: Quebec | Canada | USA | Europe | France | UK | Elsewhere
Station
Display
Info & Location for EGLL (03772) | Help decoding METAR

Weather Conditions observed on 2017/10/21 at 08:20 UTC at LONDON/HEATHROW, UK (EGLL)

Obstruction(s) to Vision: light rain.

Temperature: 12.0 Celsius.

Dewpoint: 9.0 Celsius.

Relative Humidity: 82%

Windchill Factor: 9.

Winds: Southwest at 26 km/h or 14 knots.

Mean Sea level Pressure: 100.30 kilopascals.

Horizontal visibility: 6.21 statute miles or 9.94 kilometers.

Coded METAR:

EGLL 210820Z AUTO 21014KT 9999 -RA //////CB 12/09 Q1003 TEMPO SHRA=